createdAt,value
2018-08-04T00:00:06.941Z,1013.40
2018-08-04T00:01:06.734Z,1013.37
2018-08-04T00:02:06.804Z,1013.42
2018-08-04T00:03:06.744Z,1013.38
2018-08-04T00:04:06.753Z,1013.36
2018-08-04T00:05:06.763Z,1013.36
2018-08-04T00:06:06.969Z,1013.31
2018-08-04T00:07:06.774Z,1013.33
2018-08-04T00:08:06.790Z,1013.35
2018-08-04T00:09:06.790Z,1013.33
2018-08-04T00:10:06.998Z,1013.34
2018-08-04T00:11:06.804Z,1013.36
2018-08-04T00:12:06.812Z,1013.32
2018-08-04T00:13:06.820Z,1013.35
2018-08-04T00:14:07.027Z,1013.37
2018-08-04T00:15:07.034Z,1013.40
2018-08-04T00:16:06.839Z,1013.34
2018-08-04T00:17:06.849Z,1013.38
2018-08-04T00:18:06.864Z,1013.39
2018-08-04T00:19:06.875Z,1013.41
2018-08-04T00:20:06.869Z,1013.43
2018-08-04T00:21:06.878Z,1013.41
2018-08-04T00:22:06.896Z,1013.46
2018-08-04T00:23:07.103Z,1013.48
2018-08-04T00:24:06.914Z,1013.51
2018-08-04T00:25:06.905Z,1013.48
2018-08-04T00:26:07.128Z,1013.47
2018-08-04T00:27:06.954Z,1013.45
2018-08-04T00:28:06.939Z,1013.44
2018-08-04T00:29:06.935Z,1013.46
2018-08-04T00:30:07.142Z,1013.42
2018-08-04T00:31:06.947Z,1013.38
2018-08-04T00:32:06.953Z,1013.39
2018-08-04T00:33:07.176Z,1013.38
2018-08-04T00:34:07.166Z,1013.39
2018-08-04T00:35:06.975Z,1013.36
2018-08-04T00:36:06.980Z,1013.39
2018-08-04T00:37:06.989Z,1013.40
2018-08-04T00:38:07.024Z,1013.42
2018-08-04T00:39:07.015Z,1013.42
2018-08-04T00:40:07.012Z,1013.44
2018-08-04T00:41:07.079Z,1013.42
2018-08-04T00:42:07.027Z,1013.42
2018-08-04T00:43:07.229Z,1013.43
2018-08-04T00:44:07.034Z,1013.43
2018-08-04T00:45:07.043Z,1013.38
2018-08-04T00:46:07.250Z,1013.39
2018-08-04T00:47:07.055Z,1013.35
2018-08-04T00:48:07.265Z,1013.36
2018-08-04T00:49:07.080Z,1013.37
2018-08-04T00:50:07.089Z,1013.37
2018-08-04T00:51:07.092Z,1013.37
2018-08-04T00:52:07.114Z,1013.40
2018-08-04T00:53:07.110Z,1013.45
2018-08-04T00:54:07.114Z,1013.45
2018-08-04T00:55:07.112Z,1013.46
2018-08-04T00:56:07.115Z,1013.44
2018-08-04T00:57:07.122Z,1013.47
2018-08-04T00:58:07.131Z,1013.49
2018-08-04T00:59:07.138Z,1013.48
2018-08-04T01:00:07.153Z,1013.50
2018-08-04T01:01:07.364Z,1013.52
2018-08-04T01:02:07.155Z,1013.53
2018-08-04T01:03:07.161Z,1013.53
2018-08-04T01:04:07.169Z,1013.52
2018-08-04T01:05:07.185Z,1013.50
2018-08-04T01:06:07.181Z,1013.51
2018-08-04T01:07:07.185Z,1013.51
2018-08-04T01:08:07.198Z,1013.53
2018-08-04T01:09:07.212Z,1013.49
2018-08-04T01:10:07.408Z,1013.48
2018-08-04T01:11:07.415Z,1013.48
2018-08-04T01:12:07.231Z,1013.42
2018-08-04T01:13:07.428Z,1013.48
2018-08-04T01:14:07.233Z,1013.48
2018-08-04T01:15:07.440Z,1013.48
2018-08-04T01:16:07.246Z,1013.49
2018-08-04T01:17:07.251Z,1013.51
2018-08-04T01:18:07.260Z,1013.51
2018-08-04T01:19:07.280Z,1013.49
2018-08-04T01:20:07.271Z,1013.51
2018-08-04T01:21:07.478Z,1013.52
2018-08-04T01:22:07.489Z,1013.48
2018-08-04T01:23:07.291Z,1013.56
2018-08-04T01:24:07.297Z,1013.53
2018-08-04T01:25:07.517Z,1013.54
2018-08-04T01:26:07.308Z,1013.56
2018-08-04T01:27:07.516Z,1013.51
2018-08-04T01:28:07.522Z,1013.51
2018-08-04T01:29:07.531Z,1013.55
2018-08-04T01:30:07.544Z,1013.52
2018-08-04T01:31:07.343Z,1013.49
2018-08-04T01:32:07.348Z,1013.52
2018-08-04T01:33:07.382Z,1013.53
2018-08-04T01:34:07.394Z,1013.55
2018-08-04T01:35:07.576Z,1013.51
2018-08-04T01:36:07.372Z,1013.53
2018-08-04T01:37:07.411Z,1013.49
2018-08-04T01:38:07.393Z,1013.49
2018-08-04T01:39:07.393Z,1013.47
2018-08-04T01:40:07.409Z,1013.44
2018-08-04T01:41:07.612Z,1013.49
2018-08-04T01:42:07.417Z,1013.51
2018-08-04T01:43:07.412Z,1013.48
2018-08-04T01:44:07.419Z,1013.50
2018-08-04T01:45:07.425Z,1013.52
2018-08-04T01:46:07.444Z,1013.52
2018-08-04T01:47:07.436Z,1013.53
2018-08-04T01:48:07.649Z,1013.53
2018-08-04T01:49:07.660Z,1013.54
2018-08-04T01:50:07.453Z,1013.51
2018-08-04T01:51:07.471Z,1013.54
2018-08-04T01:52:07.484Z,1013.50
2018-08-04T01:53:07.694Z,1013.53
2018-08-04T01:54:07.696Z,1013.46
2018-08-04T01:55:07.484Z,1013.45
2018-08-04T01:56:07.511Z,1013.42
2018-08-04T01:57:07.497Z,1013.43
2018-08-04T01:58:07.534Z,1013.43
2018-08-04T01:59:07.788Z,1013.42
2018-08-04T02:00:07.715Z,1013.45
2018-08-04T02:01:07.752Z,1013.49
2018-08-04T02:02:07.526Z,1013.49
2018-08-04T02:03:07.753Z,1013.48
2018-08-04T02:04:07.535Z,1013.48
2018-08-04T02:05:07.745Z,1013.48
2018-08-04T02:06:07.548Z,1013.47
2018-08-04T02:07:07.615Z,1013.44
2018-08-04T02:08:07.562Z,1013.46
2018-08-04T02:09:07.571Z,1013.50
2018-08-04T02:10:07.573Z,1013.51
2018-08-04T02:11:07.591Z,1013.49
2018-08-04T02:12:07.787Z,1013.49
2018-08-04T02:13:07.602Z,1013.53
2018-08-04T02:14:07.626Z,1013.51
2018-08-04T02:15:07.607Z,1013.48
2018-08-04T02:16:07.824Z,1013.46
2018-08-04T02:17:07.818Z,1013.48
2018-08-04T02:18:07.618Z,1013.43
2018-08-04T02:19:07.656Z,1013.39
2018-08-04T02:20:07.651Z,1013.39
2018-08-04T02:21:07.654Z,1013.37
2018-08-04T02:22:07.868Z,1013.32
2018-08-04T02:23:07.862Z,1013.32
2018-08-04T02:24:07.668Z,1013.30
2018-08-04T02:25:07.874Z,1013.32
2018-08-04T02:26:07.668Z,1013.28
2018-08-04T02:27:07.674Z,1013.29
2018-08-04T02:28:07.880Z,1013.30
2018-08-04T02:29:07.689Z,1013.26
2018-08-04T02:30:07.693Z,1013.26
2018-08-04T02:31:07.709Z,1013.26
2018-08-04T02:32:07.705Z,1013.26
2018-08-04T02:33:07.709Z,1013.29
2018-08-04T02:34:07.916Z,1013.27
2018-08-04T02:35:07.719Z,1013.27
2018-08-04T02:36:07.741Z,1013.31
2018-08-04T02:37:07.733Z,1013.30
2018-08-04T02:38:07.765Z,1013.28
2018-08-04T02:39:07.759Z,1013.29
2018-08-04T02:40:07.967Z,1013.31
2018-08-04T02:41:07.759Z,1013.31
2018-08-04T02:42:07.762Z,1013.30
2018-08-04T02:43:07.798Z,1013.30
2018-08-04T02:44:07.776Z,1013.27
2018-08-04T02:45:07.782Z,1013.23
2018-08-04T02:46:07.797Z,1013.21
2018-08-04T02:47:07.796Z,1013.20
2018-08-04T02:48:07.798Z,1013.20
2018-08-04T02:49:07.805Z,1013.18
2018-08-04T02:50:07.822Z,1013.16
2018-08-04T02:51:07.815Z,1013.09
2018-08-04T02:52:07.824Z,1013.11
2018-08-04T02:53:07.830Z,1013.12
2018-08-04T02:54:07.833Z,1013.08
2018-08-04T02:55:07.855Z,1013.12
2018-08-04T02:56:07.858Z,1013.12
2018-08-04T02:57:07.856Z,1013.09
2018-08-04T02:58:07.862Z,1013.12
2018-08-04T02:59:07.908Z,1013.15
2018-08-04T03:00:07.873Z,1013.15
2018-08-04T03:01:07.882Z,1013.21
2018-08-04T03:02:07.886Z,1013.26
2018-08-04T03:03:07.892Z,1013.25
2018-08-04T03:04:07.898Z,1013.27
2018-08-04T03:05:07.914Z,1013.23
2018-08-04T03:06:07.909Z,1013.24
2018-08-04T03:07:07.930Z,1013.21
2018-08-04T03:08:07.923Z,1013.15
2018-08-04T03:09:07.953Z,1013.12
2018-08-04T03:10:07.962Z,1013.14
2018-08-04T03:11:08.150Z,1013.13
2018-08-04T03:12:07.950Z,1013.07
2018-08-04T03:13:07.954Z,1013.06
2018-08-04T03:14:08.160Z,1013.07
2018-08-04T03:15:07.964Z,1013.08
2018-08-04T03:16:07.971Z,1013.13
2018-08-04T03:17:07.978Z,1013.12
2018-08-04T03:18:07.986Z,1013.09
2018-08-04T03:19:08.190Z,1013.11
2018-08-04T03:20:07.994Z,1013.11
2018-08-04T03:21:08.001Z,1013.10
2018-08-04T03:22:08.013Z,1013.10
2018-08-04T03:23:08.013Z,1013.12
2018-08-04T03:24:08.019Z,1013.14
2018-08-04T03:25:08.025Z,1013.15
2018-08-04T03:26:08.041Z,1013.14
2018-08-04T03:27:08.241Z,1013.11
2018-08-04T03:28:08.054Z,1013.13
2018-08-04T03:29:08.254Z,1013.13
2018-08-04T03:30:08.258Z,1013.10
2018-08-04T03:31:08.076Z,1013.04
2018-08-04T03:32:08.081Z,1013.09
2018-08-04T03:33:08.084Z,1013.06
2018-08-04T03:34:08.089Z,1013.03
2018-08-04T03:35:08.085Z,1013.01
2018-08-04T03:36:08.299Z,1013.00
2018-08-04T03:37:08.124Z,1013.01
2018-08-04T03:38:08.133Z,1012.99
2018-08-04T03:39:08.109Z,1013.03
2018-08-04T03:40:08.143Z,1013.02
2018-08-04T03:41:08.137Z,1013.00
2018-08-04T03:42:08.156Z,1013.01
2018-08-04T03:43:08.152Z,1013.04
2018-08-04T03:44:08.150Z,1013.07
2018-08-04T03:45:08.165Z,1013.08
2018-08-04T03:46:08.157Z,1013.08
2018-08-04T03:47:08.159Z,1013.08
2018-08-04T03:48:08.166Z,1013.10
2018-08-04T03:49:08.173Z,1013.08
2018-08-04T03:50:08.186Z,1013.09
2018-08-04T03:51:08.196Z,1013.10
2018-08-04T03:52:08.190Z,1013.13
2018-08-04T03:53:08.214Z,1013.10
2018-08-04T03:54:08.401Z,1013.13
2018-08-04T03:55:08.233Z,1013.15
2018-08-04T03:56:08.212Z,1013.17
2018-08-04T03:57:08.217Z,1013.18
2018-08-04T03:58:08.222Z,1013.12
2018-08-04T03:59:08.240Z,1013.20
2018-08-04T04:00:08.454Z,1013.23
2018-08-04T04:01:08.453Z,1013.21
2018-08-04T04:02:08.247Z,1013.23
2018-08-04T04:03:08.459Z,1013.25
2018-08-04T04:04:08.262Z,1013.33
2018-08-04T04:05:08.266Z,1013.33
2018-08-04T04:06:08.280Z,1013.33
2018-08-04T04:07:08.276Z,1013.29
2018-08-04T04:08:08.485Z,1013.32
2018-08-04T04:09:08.300Z,1013.30
2018-08-04T04:10:08.496Z,1013.31
2018-08-04T04:11:08.304Z,1013.29
2018-08-04T04:12:08.318Z,1013.30
2018-08-04T04:13:08.318Z,1013.25
2018-08-04T04:14:08.322Z,1013.26
2018-08-04T04:15:08.328Z,1013.24
2018-08-04T04:16:08.341Z,1013.30
2018-08-04T04:17:08.347Z,1013.25
2018-08-04T04:18:08.559Z,1013.27
2018-08-04T04:19:08.364Z,1013.30
2018-08-04T04:20:08.355Z,1013.34
2018-08-04T04:21:08.369Z,1013.32
2018-08-04T04:22:08.576Z,1013.34
2018-08-04T04:23:08.371Z,1013.37
2018-08-04T04:24:08.579Z,1013.40
2018-08-04T04:25:08.388Z,1013.41
2018-08-04T04:26:08.389Z,1013.39
2018-08-04T04:27:08.597Z,1013.41
2018-08-04T04:28:08.404Z,1013.35
2018-08-04T04:29:08.620Z,1013.39
2018-08-04T04:30:08.416Z,1013.35
2018-08-04T04:31:08.621Z,1013.31
2018-08-04T04:32:08.425Z,1013.31
2018-08-04T04:33:08.433Z,1013.29
2018-08-04T04:34:08.438Z,1013.29
2018-08-04T04:35:08.452Z,1013.32
2018-08-04T04:36:08.478Z,1013.32
2018-08-04T04:37:08.659Z,1013.33
2018-08-04T04:38:08.461Z,1013.35
2018-08-04T04:39:08.469Z,1013.37
2018-08-04T04:40:08.679Z,1013.38
2018-08-04T04:41:08.481Z,1013.40
2018-08-04T04:42:08.498Z,1013.37
2018-08-04T04:43:08.504Z,1013.39
2018-08-04T04:44:08.700Z,1013.37
2018-08-04T04:45:08.721Z,1013.40
2018-08-04T04:46:08.523Z,1013.39
2018-08-04T04:47:08.534Z,1013.39
2018-08-04T04:48:08.751Z,1013.41
2018-08-04T04:49:08.732Z,1013.42
2018-08-04T04:50:08.548Z,1013.43
2018-08-04T04:51:08.543Z,1013.44
2018-08-04T04:52:08.564Z,1013.47
2018-08-04T04:53:08.555Z,1013.43
2018-08-04T04:54:08.763Z,1013.44
2018-08-04T04:55:08.588Z,1013.41
2018-08-04T04:56:08.776Z,1013.41
2018-08-04T04:57:08.612Z,1013.40
2018-08-04T04:58:08.622Z,1013.39
2018-08-04T04:59:08.604Z,1013.42
2018-08-04T05:00:08.815Z,1013.41
2018-08-04T05:01:08.607Z,1013.39
2018-08-04T05:02:08.678Z,1013.40
2018-08-04T05:03:08.834Z,1013.40
2018-08-04T05:04:08.828Z,1013.43
2018-08-04T05:05:08.657Z,1013.44
2018-08-04T05:06:08.839Z,1013.45
2018-08-04T05:07:08.653Z,1013.47
2018-08-04T05:08:08.881Z,1013.48
2018-08-04T05:09:08.680Z,1013.47
2018-08-04T05:10:08.666Z,1013.47
2018-08-04T05:11:08.684Z,1013.51
2018-08-04T05:12:08.891Z,1013.50
2018-08-04T05:13:08.682Z,1013.52
2018-08-04T05:14:08.702Z,1013.53
2018-08-04T05:15:08.698Z,1013.52
2018-08-04T05:16:08.718Z,1013.52
2018-08-04T05:17:08.707Z,1013.55
2018-08-04T05:18:08.713Z,1013.58
2018-08-04T05:19:08.719Z,1013.52
2018-08-04T05:20:08.726Z,1013.57
2018-08-04T05:21:08.743Z,1013.56
2018-08-04T05:22:08.748Z,1013.56
2018-08-04T05:23:08.771Z,1013.56
2018-08-04T05:24:08.760Z,1013.58
2018-08-04T05:25:08.774Z,1013.61
2018-08-04T05:26:08.776Z,1013.60
2018-08-04T05:27:08.778Z,1013.61
2018-08-04T05:28:08.988Z,1013.59
2018-08-04T05:29:08.781Z,1013.60
2018-08-04T05:30:08.797Z,1013.58
2018-08-04T05:31:08.791Z,1013.62
2018-08-04T05:32:08.872Z,1013.62
2018-08-04T05:33:08.806Z,1013.65
2018-08-04T05:34:09.024Z,1013.72
2018-08-04T05:35:08.818Z,1013.71
2018-08-04T05:36:09.025Z,1013.76
2018-08-04T05:37:08.832Z,1013.75
2018-08-04T05:38:08.845Z,1013.77
2018-08-04T05:39:08.857Z,1013.80
2018-08-04T05:40:09.049Z,1013.82
2018-08-04T05:41:08.854Z,1013.82
2018-08-04T05:42:08.858Z,1013.82
2018-08-04T05:43:08.912Z,1013.77
2018-08-04T05:44:08.872Z,1013.79
2018-08-04T05:45:08.878Z,1013.76
2018-08-04T05:46:08.892Z,1013.77
2018-08-04T05:47:09.120Z,1013.78
2018-08-04T05:48:09.107Z,1013.76
2018-08-04T05:49:09.133Z,1013.73
2018-08-04T05:50:08.918Z,1013.69
2018-08-04T05:51:08.914Z,1013.76
2018-08-04T05:52:08.919Z,1013.70
2018-08-04T05:53:08.925Z,1013.72
2018-08-04T05:54:08.931Z,1013.69
2018-08-04T05:55:08.949Z,1013.72
2018-08-04T05:56:09.161Z,1013.73
2018-08-04T05:57:09.183Z,1013.75
2018-08-04T05:58:09.173Z,1013.75
2018-08-04T05:59:08.979Z,1013.77
2018-08-04T06:00:08.968Z,1013.79
2018-08-04T06:01:08.987Z,1013.75
2018-08-04T06:02:08.979Z,1013.75
2018-08-04T06:03:09.034Z,1013.76
2018-08-04T06:04:09.197Z,1013.77
2018-08-04T06:05:09.199Z,1013.78
2018-08-04T06:06:09.217Z,1013.82
2018-08-04T06:07:09.009Z,1013.82
2018-08-04T06:08:09.017Z,1013.81
2018-08-04T06:09:09.032Z,1013.83
2018-08-04T06:10:09.259Z,1013.81
2018-08-04T06:11:09.039Z,1013.84
2018-08-04T06:12:09.070Z,1013.84
2018-08-04T06:13:09.066Z,1013.84
2018-08-04T06:14:09.051Z,1013.85
2018-08-04T06:15:09.289Z,1013.84
2018-08-04T06:16:09.095Z,1013.84
2018-08-04T06:17:09.072Z,1013.82
2018-08-04T06:18:09.079Z,1013.83
2018-08-04T06:19:09.090Z,1013.85
2018-08-04T06:20:09.106Z,1013.83
2018-08-04T06:21:09.297Z,1013.86
2018-08-04T06:22:09.189Z,1013.89
2018-08-04T06:23:09.110Z,1013.91
2018-08-04T06:24:09.318Z,1013.92
2018-08-04T06:25:09.122Z,1013.95
2018-08-04T06:26:09.127Z,1013.96
2018-08-04T06:27:09.133Z,1013.96
2018-08-04T06:28:09.159Z,1013.99
2018-08-04T06:29:09.157Z,1014.02
2018-08-04T06:30:09.153Z,1014.03
2018-08-04T06:31:09.170Z,1013.99
2018-08-04T06:32:09.176Z,1014.03
2018-08-04T06:33:09.372Z,1014.04
2018-08-04T06:34:09.179Z,1014.05
2018-08-04T06:35:09.211Z,1014.07
2018-08-04T06:36:09.396Z,1014.04
2018-08-04T06:37:09.197Z,1014.03
2018-08-04T06:38:09.416Z,1014.03
2018-08-04T06:39:09.208Z,1014.05
2018-08-04T06:40:09.214Z,1014.11
2018-08-04T06:41:09.424Z,1014.09
2018-08-04T06:42:09.259Z,1014.12
2018-08-04T06:43:09.253Z,1014.16
2018-08-04T06:44:09.268Z,1014.16
2018-08-04T06:45:09.246Z,1014.12
2018-08-04T06:46:09.453Z,1014.13
2018-08-04T06:47:09.261Z,1014.11
2018-08-04T06:48:09.467Z,1014.13
2018-08-04T06:49:09.274Z,1014.12
2018-08-04T06:50:09.278Z,1014.10
2018-08-04T06:51:09.486Z,1014.14
2018-08-04T06:52:09.300Z,1014.09
2018-08-04T06:53:09.307Z,1014.05
2018-08-04T06:54:09.314Z,1014.06
2018-08-04T06:55:09.339Z,1014.07
2018-08-04T06:56:09.533Z,1014.06
2018-08-04T06:57:09.521Z,1014.08
2018-08-04T06:58:09.325Z,1014.05
2018-08-04T06:59:09.343Z,1014.07
2018-08-04T07:00:09.341Z,1014.05
2018-08-04T07:01:09.357Z,1014.05
2018-08-04T07:02:09.351Z,1014.08
2018-08-04T07:03:09.561Z,1014.09
2018-08-04T07:04:09.367Z,1014.10
2018-08-04T07:05:09.583Z,1014.11
2018-08-04T07:06:09.376Z,1014.15
2018-08-04T07:07:09.382Z,1014.14
2018-08-04T07:08:09.407Z,1014.14
2018-08-04T07:09:09.606Z,1014.17
2018-08-04T07:10:09.400Z,1014.18
2018-08-04T07:11:09.408Z,1014.18
2018-08-04T07:12:09.422Z,1014.19
2018-08-04T07:13:09.433Z,1014.20
2018-08-04T07:14:09.439Z,1014.18
2018-08-04T07:15:09.441Z,1014.19
2018-08-04T07:16:09.439Z,1014.20
2018-08-04T07:17:09.463Z,1014.17
2018-08-04T07:18:09.461Z,1014.15
2018-08-04T07:19:09.456Z,1014.17
2018-08-04T07:20:09.463Z,1014.18
2018-08-04T07:21:09.481Z,1014.22
2018-08-04T07:22:09.475Z,1014.19
2018-08-04T07:23:09.480Z,1014.17
2018-08-04T07:24:09.488Z,1014.18
2018-08-04T07:25:09.505Z,1014.21
2018-08-04T07:26:09.521Z,1014.21
2018-08-04T07:27:09.520Z,1014.24
2018-08-04T07:28:09.514Z,1014.30
2018-08-04T07:29:09.581Z,1014.28
2018-08-04T07:30:09.728Z,1014.30
2018-08-04T07:31:09.550Z,1014.30
2018-08-04T07:32:09.550Z,1014.34
2018-08-04T07:33:09.750Z,1014.31
2018-08-04T07:34:09.604Z,1014.30
2018-08-04T07:35:09.561Z,1014.33
2018-08-04T07:36:09.579Z,1014.28
2018-08-04T07:37:09.575Z,1014.24
2018-08-04T07:38:09.682Z,1014.22
2018-08-04T07:39:09.587Z,1014.20
2018-08-04T07:40:09.599Z,1014.21
2018-08-04T07:41:09.602Z,1014.19
2018-08-04T07:42:09.608Z,1014.19
2018-08-04T07:43:09.616Z,1014.18
2018-08-04T07:44:09.827Z,1014.20
2018-08-04T07:45:09.657Z,1014.22
2018-08-04T07:46:09.852Z,1014.22
2018-08-04T07:47:09.643Z,1014.23
2018-08-04T07:48:09.651Z,1014.21
2018-08-04T07:49:09.685Z,1014.19
2018-08-04T07:50:09.884Z,1014.22
2018-08-04T07:51:09.885Z,1014.23
2018-08-04T07:52:09.684Z,1014.24
2018-08-04T07:53:09.681Z,1014.26
2018-08-04T07:54:09.688Z,1014.29
2018-08-04T07:55:09.694Z,1014.30
2018-08-04T07:56:09.905Z,1014.30
2018-08-04T07:57:09.718Z,1014.34
2018-08-04T07:58:09.716Z,1014.38
2018-08-04T07:59:09.922Z,1014.41
2018-08-04T08:00:09.951Z,1014.37
2018-08-04T08:01:09.763Z,1014.38
2018-08-04T08:02:09.751Z,1014.39
2018-08-04T08:03:09.749Z,1014.40
2018-08-04T08:04:09.959Z,1014.40
2018-08-04T08:05:09.789Z,1014.39
2018-08-04T08:06:09.967Z,1014.48
2018-08-04T08:07:09.987Z,1014.46
2018-08-04T08:08:09.782Z,1014.45
2018-08-04T08:09:09.786Z,1014.42
2018-08-04T08:10:09.792Z,1014.43
2018-08-04T08:11:09.901Z,1014.43
2018-08-04T08:12:09.808Z,1014.42
2018-08-04T08:13:09.830Z,1014.36
2018-08-04T08:14:10.039Z,1014.43
2018-08-04T08:15:09.826Z,1014.46
2018-08-04T08:16:09.845Z,1014.45
2018-08-04T08:17:09.843Z,1014.49
2018-08-04T08:18:09.851Z,1014.45
2018-08-04T08:19:09.860Z,1014.46
2018-08-04T08:20:10.065Z,1014.46
2018-08-04T08:21:09.883Z,1014.41
2018-08-04T08:22:10.077Z,1014.47
2018-08-04T08:23:09.893Z,1014.43
2018-08-04T08:24:10.091Z,1014.41
2018-08-04T08:25:09.916Z,1014.40
2018-08-04T08:26:10.105Z,1014.42
2018-08-04T08:27:09.920Z,1014.43
2018-08-04T08:28:10.134Z,1014.43
2018-08-04T08:29:10.126Z,1014.47
2018-08-04T08:30:09.932Z,1014.48
2018-08-04T08:31:09.985Z,1014.49
2018-08-04T08:32:09.944Z,1014.55
2018-08-04T08:33:09.956Z,1014.52
2018-08-04T08:34:10.177Z,1014.66
2018-08-04T08:35:10.177Z,1014.75
2018-08-04T08:36:10.176Z,1014.59
2018-08-04T08:37:09.982Z,1014.62
2018-08-04T08:38:09.998Z,1014.70
2018-08-04T08:39:10.197Z,1014.55
2018-08-04T08:40:10.014Z,1014.59
2018-08-04T08:41:10.229Z,1014.54
2018-08-04T08:42:10.016Z,1014.56
2018-08-04T08:43:10.039Z,1014.53
2018-08-04T08:44:10.058Z,1014.51
2018-08-04T08:45:10.243Z,1014.53
2018-08-04T08:46:10.251Z,1014.55
2018-08-04T08:47:10.098Z,1014.52
2018-08-04T08:48:10.068Z,1014.50
2018-08-04T08:49:10.072Z,1014.51
2018-08-04T08:50:10.081Z,1014.55
2018-08-04T08:51:10.302Z,1014.57
2018-08-04T08:52:10.296Z,1014.53
2018-08-04T08:53:10.379Z,1014.53
2018-08-04T08:54:10.307Z,1014.45
2018-08-04T08:55:10.118Z,1014.54
2018-08-04T08:56:10.330Z,1014.54
2018-08-04T08:57:10.338Z,1014.60
2018-08-04T08:58:10.143Z,1014.58
2018-08-04T08:59:10.149Z,1014.62
2018-08-04T09:00:10.358Z,1014.58
2018-08-04T09:01:10.167Z,1014.61
2018-08-04T09:02:10.182Z,1014.53
2018-08-04T09:03:10.181Z,1014.57
2018-08-04T09:04:10.201Z,1014.56
2018-08-04T09:05:10.203Z,1014.53
2018-08-04T09:06:10.200Z,1014.55
2018-08-04T09:07:10.210Z,1014.57
2018-08-04T09:08:10.226Z,1014.55
2018-08-04T09:09:10.223Z,1014.56
2018-08-04T09:10:10.431Z,1014.53
2018-08-04T09:11:10.453Z,1014.52
2018-08-04T09:12:10.256Z,1014.48
2018-08-04T09:13:10.254Z,1014.52
2018-08-04T09:14:10.259Z,1014.56
2018-08-04T09:15:10.279Z,1014.55
2018-08-04T09:16:10.272Z,1014.56
2018-08-04T09:17:10.280Z,1014.55
2018-08-04T09:18:10.289Z,1014.55
2018-08-04T09:19:10.500Z,1014.56
2018-08-04T09:20:10.313Z,1014.54
2018-08-04T09:21:10.309Z,1014.55
2018-08-04T09:22:10.318Z,1014.54
2018-08-04T09:23:10.396Z,1014.56
2018-08-04T09:24:10.343Z,1014.52
2018-08-04T09:25:10.340Z,1014.49
2018-08-04T09:26:10.344Z,1014.48
2018-08-04T09:27:10.363Z,1014.55
2018-08-04T09:28:10.360Z,1014.48
2018-08-04T09:29:10.568Z,1014.52
2018-08-04T09:30:10.379Z,1014.52
2018-08-04T09:31:10.398Z,1014.53
2018-08-04T09:32:10.387Z,1014.51
2018-08-04T09:33:10.396Z,1014.52
2018-08-04T09:34:10.416Z,1014.57
2018-08-04T09:35:10.412Z,1014.53
2018-08-04T09:36:10.428Z,1014.54
2018-08-04T09:37:10.628Z,1014.56
2018-08-04T09:38:10.450Z,1014.53
2018-08-04T09:39:10.498Z,1014.58
2018-08-04T09:40:10.448Z,1014.55
2018-08-04T09:41:10.453Z,1014.52
2018-08-04T09:42:10.672Z,1014.56
2018-08-04T09:43:10.480Z,1014.55
2018-08-04T09:44:10.485Z,1014.53
2018-08-04T09:45:10.682Z,1014.49
2018-08-04T09:46:10.497Z,1014.53
2018-08-04T09:47:10.522Z,1014.54
2018-08-04T09:48:10.521Z,1014.54
2018-08-04T09:49:10.713Z,1014.53
2018-08-04T09:50:10.531Z,1014.55
2018-08-04T09:51:10.533Z,1014.50
2018-08-04T09:52:10.534Z,1014.52
2018-08-04T09:53:10.541Z,1014.49
2018-08-04T09:54:10.748Z,1014.51
2018-08-04T09:55:10.556Z,1014.51
2018-08-04T09:56:10.561Z,1014.51
2018-08-04T09:57:10.578Z,1014.50
2018-08-04T09:58:10.574Z,1014.52
2018-08-04T09:59:10.582Z,1014.52
2018-08-04T10:00:10.589Z,1014.58
2018-08-04T10:01:10.596Z,1014.53
2018-08-04T10:02:10.615Z,1014.51
2018-08-04T10:03:10.827Z,1014.59
2018-08-04T10:04:10.628Z,1014.59
2018-08-04T10:05:10.628Z,1014.62
2018-08-04T10:06:10.630Z,1014.57
2018-08-04T10:07:10.865Z,1014.61
2018-08-04T10:08:10.662Z,1014.62
2018-08-04T10:09:10.913Z,1014.62
2018-08-04T10:10:10.660Z,1014.64
2018-08-04T10:11:10.873Z,1014.67
2018-08-04T10:12:10.675Z,1014.66
2018-08-04T10:13:10.682Z,1014.68
2018-08-04T10:14:10.687Z,1014.71
2018-08-04T10:15:10.696Z,1014.77
2018-08-04T10:16:10.703Z,1014.71
2018-08-04T10:17:10.710Z,1014.75
2018-08-04T10:18:10.924Z,1014.77
2018-08-04T10:19:10.724Z,1014.75
2018-08-04T10:20:10.749Z,1014.70
2018-08-04T10:21:10.741Z,1014.76
2018-08-04T10:22:10.949Z,1014.73
2018-08-04T10:23:10.754Z,1014.75
2018-08-04T10:24:10.760Z,1014.79
2018-08-04T10:25:10.985Z,1014.80
2018-08-04T10:26:10.778Z,1014.78
2018-08-04T10:27:10.793Z,1014.72
2018-08-04T10:28:10.790Z,1014.67
2018-08-04T10:29:11.025Z,1014.68
2018-08-04T10:30:10.823Z,1014.67
2018-08-04T10:31:10.829Z,1014.72
2018-08-04T10:32:11.125Z,1014.72
2018-08-04T10:33:11.038Z,1014.63
2018-08-04T10:34:10.834Z,1014.60
2018-08-04T10:35:11.040Z,1014.61
2018-08-04T10:36:10.862Z,1014.60
2018-08-04T10:37:10.872Z,1014.63
2018-08-04T10:38:10.876Z,1014.60
2018-08-04T10:39:10.868Z,1014.61
2018-08-04T10:40:11.079Z,1014.63
2018-08-04T10:41:10.892Z,1014.61
2018-08-04T10:42:10.890Z,1014.60
2018-08-04T10:43:10.926Z,1014.60
2018-08-04T10:44:10.903Z,1014.64
2018-08-04T10:45:10.927Z,1014.59
2018-08-04T10:46:10.945Z,1014.62
2018-08-04T10:47:10.926Z,1014.62
2018-08-04T10:48:10.933Z,1014.63
2018-08-04T10:49:10.943Z,1014.59
2018-08-04T10:50:10.963Z,1014.62
2018-08-04T10:51:11.156Z,1014.62
2018-08-04T10:52:11.165Z,1014.57
2018-08-04T10:53:10.972Z,1014.60
2018-08-04T10:54:10.978Z,1014.66
2018-08-04T10:55:10.985Z,1014.64
2018-08-04T10:56:11.002Z,1014.61
2018-08-04T10:57:10.999Z,1014.65
2018-08-04T10:58:11.028Z,1014.62
2018-08-04T10:59:11.039Z,1014.65
2018-08-04T11:00:11.024Z,1014.62
2018-08-04T11:01:11.045Z,1014.61
2018-08-04T11:02:11.061Z,1014.61
2018-08-04T11:03:11.059Z,1014.62
2018-08-04T11:04:11.051Z,1014.60
2018-08-04T11:05:11.059Z,1014.59
2018-08-04T11:06:11.076Z,1014.66
2018-08-04T11:07:11.285Z,1014.69
2018-08-04T11:08:11.096Z,1014.66
2018-08-04T11:09:11.106Z,1014.67
2018-08-04T11:10:11.112Z,1014.64
2018-08-04T11:11:11.330Z,1014.62
2018-08-04T11:12:11.121Z,1014.58
2018-08-04T11:13:11.119Z,1014.59
2018-08-04T11:14:11.136Z,1014.56
2018-08-04T11:15:11.145Z,1014.58
2018-08-04T11:16:11.151Z,1014.55
2018-08-04T11:17:11.150Z,1014.51
2018-08-04T11:18:11.233Z,1014.54
2018-08-04T11:19:11.365Z,1014.50
2018-08-04T11:20:11.171Z,1014.48
2018-08-04T11:21:11.179Z,1014.51
2018-08-04T11:22:11.386Z,1014.48
2018-08-04T11:23:11.205Z,1014.50
2018-08-04T11:24:11.356Z,1014.49
2018-08-04T11:25:11.432Z,1014.49
2018-08-04T11:26:11.214Z,1014.50
2018-08-04T11:27:11.426Z,1014.46
2018-08-04T11:28:11.243Z,1014.45
2018-08-04T11:29:11.442Z,1014.43
2018-08-04T11:30:11.245Z,1014.48
2018-08-04T11:31:11.255Z,1014.44
2018-08-04T11:32:11.277Z,1014.38
2018-08-04T11:33:11.269Z,1014.37
2018-08-04T11:34:11.276Z,1014.35
2018-08-04T11:35:11.297Z,1014.33
2018-08-04T11:36:11.294Z,1014.26
2018-08-04T11:37:11.301Z,1014.24
2018-08-04T11:38:11.511Z,1014.22
2018-08-04T11:39:11.516Z,1014.22
2018-08-04T11:40:11.332Z,1014.23
2018-08-04T11:41:11.329Z,1014.23
2018-08-04T11:42:11.350Z,1014.24
2018-08-04T11:43:11.343Z,1014.22
2018-08-04T11:44:11.353Z,1014.24
2018-08-04T11:45:11.393Z,1014.29
2018-08-04T11:46:11.382Z,1014.25
2018-08-04T11:47:11.388Z,1014.25
2018-08-04T11:48:11.588Z,1014.21
2018-08-04T11:49:11.393Z,1014.22
2018-08-04T11:50:11.404Z,1014.24
2018-08-04T11:51:11.407Z,1014.22
2018-08-04T11:52:11.415Z,1014.20
2018-08-04T11:53:11.424Z,1014.23
2018-08-04T11:54:11.431Z,1014.24
2018-08-04T11:55:11.443Z,1014.21
2018-08-04T11:56:11.446Z,1014.23
2018-08-04T11:57:11.673Z,1014.23
2018-08-04T11:58:11.678Z,1014.21
2018-08-04T11:59:11.470Z,1014.19
2018-08-04T12:00:11.507Z,1014.18
2018-08-04T12:01:11.501Z,1014.16
2018-08-04T12:02:11.710Z,1014.15
2018-08-04T12:03:11.515Z,1014.15
2018-08-04T12:04:11.524Z,1014.14
2018-08-04T12:05:11.720Z,1014.17